createdAt,value
2019-02-22T00:03:45.883Z,37.87
2019-02-22T00:06:13.713Z,42.50
2019-02-22T00:08:41.166Z,45.37
2019-02-22T00:11:08.892Z,41.00
2019-02-22T00:13:36.376Z,43.55
2019-02-22T00:16:03.929Z,42.57
2019-02-22T00:18:31.514Z,39.67
2019-02-22T00:20:59.094Z,39.73
2019-02-22T00:23:26.525Z,46.73
2019-02-22T00:25:55.009Z,39.37
2019-02-22T00:28:22.645Z,42.73
2019-02-22T00:30:50.278Z,37.67
2019-02-22T00:33:17.890Z,41.07
2019-02-22T00:35:45.750Z,43.73
2019-02-22T00:38:13.345Z,41.87
2019-02-22T00:40:40.796Z,43.40
2019-02-22T00:43:08.305Z,48.80
2019-02-22T00:45:35.858Z,49.73
2019-02-22T00:48:03.420Z,45.47
2019-02-22T00:50:30.769Z,39.87
2019-02-22T00:52:58.132Z,45.53
2019-02-22T00:55:25.851Z,47.33
2019-02-22T00:57:53.526Z,45.30
2019-02-22T01:00:21.050Z,47.03
2019-02-22T01:02:48.581Z,44.70
2019-02-22T01:05:16.623Z,47.43
2019-02-22T01:07:45.660Z,41.30
2019-02-22T01:10:13.393Z,42.00
2019-02-22T01:12:40.847Z,47.03
2019-02-22T01:15:08.796Z,48.00
2019-02-22T01:17:36.534Z,42.60
2019-02-22T01:20:04.063Z,50.67
2019-02-22T01:22:31.765Z,47.03
2019-02-22T01:24:59.341Z,43.80
2019-02-22T01:27:26.808Z,45.93
2019-02-22T01:29:54.385Z,52.73
2019-02-22T01:32:22.623Z,42.87
2019-02-22T01:34:50.534Z,50.57
2019-02-22T01:37:18.182Z,46.93
2019-02-22T01:39:45.647Z,45.97
2019-02-22T01:42:13.256Z,57.87
2019-02-22T01:44:40.723Z,48.20
2019-02-22T01:47:08.283Z,50.43
2019-02-22T01:49:35.828Z,57.95
2019-02-22T01:52:03.372Z,46.48
2019-02-22T01:54:30.974Z,44.17
2019-02-22T01:56:58.408Z,51.70
2019-02-22T01:59:26.439Z,57.10
2019-02-22T02:01:54.010Z,49.73
2019-02-22T02:04:22.963Z,49.83
2019-02-22T02:06:51.602Z,59.93
2019-02-22T02:09:19.163Z,50.50
2019-02-22T02:11:46.896Z,53.83
2019-02-22T02:14:14.477Z,53.80
2019-02-22T02:16:42.310Z,55.30
2019-02-22T02:19:09.883Z,54.00
2019-02-22T02:21:37.459Z,51.00
2019-02-22T02:24:05.046Z,49.70
2019-02-22T02:26:32.519Z,52.07
2019-02-22T02:29:03.023Z,49.93
2019-02-22T02:31:30.443Z,52.73
2019-02-22T02:33:58.080Z,51.37
2019-02-22T02:36:25.690Z,43.57
2019-02-22T02:38:53.312Z,49.07
2019-02-22T02:41:20.815Z,55.48
2019-02-22T02:43:48.379Z,56.90
2019-02-22T02:46:16.043Z,48.63
2019-02-22T02:48:43.669Z,45.87
2019-02-22T02:51:11.154Z,43.37
2019-02-22T02:53:38.709Z,43.03
2019-02-22T02:56:06.330Z,45.37
2019-02-22T02:58:33.934Z,51.83
2019-02-22T03:01:03.019Z,48.70
2019-02-22T03:03:30.583Z,44.73
2019-02-22T03:06:32.839Z,60.10
2019-02-22T03:09:03.087Z,52.20
2019-02-22T03:11:32.487Z,58.37
2019-02-22T03:14:00.005Z,53.03
2019-02-22T03:16:27.697Z,59.23
2019-02-22T03:18:55.158Z,69.40
2019-02-22T03:21:22.704Z,53.03
2019-02-22T03:23:50.206Z,63.37
2019-02-22T03:26:17.888Z,72.40
2019-02-22T03:28:45.254Z,75.10
2019-02-22T03:31:12.817Z,79.37
2019-02-22T03:33:40.367Z,80.17
2019-02-22T03:36:08.071Z,66.83
2019-02-22T03:38:35.614Z,67.10
2019-02-22T03:41:03.300Z,71.87
2019-02-22T03:43:30.788Z,66.77
2019-02-22T03:45:58.285Z,77.83
2019-02-22T03:48:25.940Z,71.77
2019-02-22T03:50:53.452Z,64.37
2019-02-22T03:53:33.911Z,69.50
2019-02-22T03:56:01.434Z,61.10
2019-02-22T03:58:30.143Z,64.70
2019-02-22T04:00:57.588Z,67.30
2019-02-22T04:03:25.002Z,61.87
2019-02-22T04:05:52.817Z,74.97
2019-02-22T04:08:20.390Z,53.37
2019-02-22T04:10:47.864Z,50.50
2019-02-22T04:13:15.413Z,52.80
2019-02-22T04:15:43.065Z,53.15
2019-02-22T04:18:10.591Z,46.80
2019-02-22T04:20:38.084Z,52.30
2019-02-22T04:23:05.554Z,42.40
2019-02-22T04:25:33.009Z,41.43
2019-02-22T04:28:12.666Z,42.00
2019-02-22T04:30:40.200Z,42.97
2019-02-22T04:33:07.632Z,40.63
2019-02-22T04:35:35.919Z,42.63
2019-02-22T04:38:03.426Z,40.60
2019-02-22T04:40:31.099Z,40.80
2019-02-22T04:42:58.632Z,33.67
2019-02-22T04:45:26.169Z,40.57
2019-02-22T04:47:54.379Z,42.33
2019-02-22T04:50:22.317Z,49.37
2019-02-22T04:52:49.933Z,58.67
2019-02-22T04:55:17.494Z,53.23
2019-02-22T04:57:45.086Z,69.57
2019-02-22T05:00:12.674Z,57.13
2019-02-22T05:02:40.313Z,55.30
2019-02-22T05:05:08.048Z,45.90
2019-02-22T05:07:35.636Z,44.08
2019-02-22T05:10:03.711Z,36.20
2019-02-22T05:12:32.456Z,35.73
2019-02-22T05:15:11.879Z,32.40
2019-02-22T05:17:30.972Z,29.60
2019-02-22T05:19:58.562Z,34.07
2019-02-22T05:22:27.390Z,29.20
2019-02-22T05:24:55.022Z,31.50
2019-02-22T05:27:22.867Z,29.93
2019-02-22T05:29:50.442Z,28.60
2019-02-22T05:32:18.161Z,33.27
2019-02-22T05:34:45.820Z,31.80
2019-02-22T05:37:13.407Z,31.43
2019-02-22T05:39:41.062Z,34.70
2019-02-22T05:42:08.706Z,34.97
2019-02-22T05:44:36.325Z,35.80
2019-02-22T05:47:03.827Z,35.30
2019-02-22T05:49:31.528Z,35.70
2019-02-22T05:51:59.199Z,32.97
2019-02-22T05:54:26.850Z,36.63
2019-02-22T05:56:55.307Z,37.60
2019-02-22T05:59:23.165Z,35.35
2019-02-22T06:01:50.835Z,43.90
2019-02-22T06:04:18.372Z,43.15
2019-02-22T06:06:45.960Z,38.00
2019-02-22T06:09:13.578Z,34.33
2019-02-22T06:11:41.196Z,36.60
2019-02-22T06:14:08.774Z,35.37
2019-02-22T06:16:44.038Z,33.33
2019-02-22T06:19:12.403Z,34.53
2019-02-22T06:21:39.911Z,36.33
2019-02-22T06:24:07.382Z,39.63
2019-02-22T06:26:34.850Z,32.90
2019-02-22T06:29:03.409Z,33.73
2019-02-22T06:31:30.918Z,32.97
2019-02-22T06:33:58.397Z,36.57
2019-02-22T06:36:25.994Z,30.20
2019-02-22T06:38:53.686Z,34.33
2019-02-22T06:41:21.285Z,37.43
2019-02-22T06:43:48.715Z,35.07
2019-02-22T06:46:16.299Z,33.83
2019-02-22T06:48:44.875Z,32.07
2019-02-22T06:51:12.363Z,38.17
2019-02-22T06:53:39.967Z,34.90
2019-02-22T06:56:07.518Z,36.00
2019-02-22T06:58:34.964Z,34.85
2019-02-22T07:01:03.129Z,33.63
2019-02-22T07:03:30.543Z,30.83
2019-02-22T07:05:58.023Z,34.30
2019-02-22T07:08:25.564Z,32.37
2019-02-22T07:11:16.754Z,29.37
2019-02-22T07:13:44.355Z,30.60
2019-02-22T07:16:12.006Z,32.10
2019-02-22T07:18:39.642Z,35.23
2019-02-22T07:21:08.770Z,32.67
2019-02-22T07:23:36.228Z,26.40
2019-02-22T07:26:03.724Z,31.40
2019-02-22T07:28:31.319Z,30.40
2019-02-22T07:30:58.923Z,28.37
2019-02-22T07:33:26.436Z,32.77
2019-02-22T07:35:53.871Z,35.30
2019-02-22T07:38:21.444Z,29.07
2019-02-22T07:40:48.955Z,31.37
2019-02-22T07:43:16.474Z,31.27
2019-02-22T07:45:45.094Z,32.77
2019-02-22T07:48:12.538Z,30.63
2019-02-22T07:50:40.226Z,35.40
2019-02-22T07:53:08.037Z,32.83
2019-02-22T07:55:35.610Z,33.45
2019-02-22T07:58:03.285Z,29.73
2019-02-22T08:00:30.797Z,34.27
2019-02-22T08:02:58.446Z,36.57
2019-02-22T08:05:26.135Z,28.87
2019-02-22T08:07:53.798Z,30.23
2019-02-22T08:10:21.410Z,35.47
2019-02-22T08:12:48.945Z,31.20
2019-02-22T08:15:16.459Z,33.20
2019-02-22T08:17:44.111Z,30.43
2019-02-22T08:20:11.561Z,33.93
2019-02-22T08:22:39.191Z,29.63
2019-02-22T08:25:08.556Z,28.07
2019-02-22T08:27:36.429Z,32.27
2019-02-22T08:30:04.758Z,28.17
2019-02-22T08:32:32.684Z,31.53
2019-02-22T08:35:00.339Z,30.80
2019-02-22T08:37:31.696Z,32.20
2019-02-22T08:40:02.078Z,29.83
2019-02-22T08:42:28.670Z,34.90
2019-02-22T08:44:56.115Z,28.83
2019-02-22T08:47:23.685Z,34.45
2019-02-22T08:49:51.402Z,32.03
2019-02-22T08:52:19.075Z,32.57
2019-02-22T08:54:47.499Z,29.13
2019-02-22T08:57:15.248Z,38.17
2019-02-22T08:59:42.873Z,29.93
2019-02-22T09:02:11.395Z,30.60
2019-02-22T09:04:39.900Z,32.13
2019-02-22T09:07:07.570Z,32.47
2019-02-22T09:09:35.335Z,28.10
2019-02-22T09:12:02.791Z,33.70
2019-02-22T09:14:31.365Z,35.73
2019-02-22T09:16:58.895Z,35.10
2019-02-22T09:19:26.323Z,30.10
2019-02-22T09:21:53.912Z,36.97
2019-02-22T09:24:21.411Z,32.53
2019-02-22T09:26:48.915Z,35.30
2019-02-22T09:29:16.471Z,34.07
2019-02-22T09:31:44.099Z,38.17
2019-02-22T09:34:11.666Z,46.03
2019-02-22T09:36:39.181Z,42.50
2019-02-22T09:39:06.976Z,38.53
2019-02-22T09:41:36.041Z,36.08
2019-02-22T09:44:03.552Z,35.53
2019-02-22T09:46:31.159Z,37.77
2019-02-22T09:48:58.621Z,36.20
2019-02-22T09:51:26.172Z,36.50
2019-02-22T09:53:53.847Z,32.20
2019-02-22T09:56:21.371Z,29.27
2019-02-22T09:58:48.926Z,30.33
2019-02-22T10:01:16.492Z,32.40
2019-02-22T10:03:44.013Z,33.20
2019-02-22T10:06:12.607Z,28.50
2019-02-22T10:08:40.180Z,28.80
2019-02-22T10:11:07.847Z,28.03
2019-02-22T10:13:35.374Z,30.30
2019-02-22T10:16:02.835Z,28.30
2019-02-22T10:18:30.438Z,32.73
2019-02-22T10:20:57.942Z,28.00
2019-02-22T10:23:25.396Z,32.40
2019-02-22T10:25:52.986Z,28.03
2019-02-22T10:28:20.659Z,18.47
2019-02-22T10:30:48.183Z,18.20
2019-02-22T10:33:15.707Z,19.60
2019-02-22T10:35:43.134Z,21.53
2019-02-22T10:38:10.551Z,22.67
2019-02-22T10:40:39.287Z,31.70
2019-02-22T10:43:08.215Z,25.00
2019-02-22T10:45:36.930Z,25.40
2019-02-22T10:48:04.699Z,23.07
2019-02-22T10:50:32.322Z,20.57
2019-02-22T10:53:02.452Z,16.00
2019-02-22T10:55:29.800Z,13.53
2019-02-22T10:57:57.316Z,12.30
2019-02-22T11:00:24.926Z,10.27
2019-02-22T11:02:52.503Z,11.80
2019-02-22T11:05:20.345Z,9.67
2019-02-22T11:07:47.910Z,7.90
2019-02-22T11:10:15.375Z,9.20
2019-02-22T11:12:43.003Z,9.47
2019-02-22T11:15:11.095Z,9.93
2019-02-22T11:17:38.758Z,10.67
2019-02-22T11:20:06.662Z,9.87
2019-02-22T11:22:34.175Z,9.33
2019-02-22T11:25:03.065Z,10.00
2019-02-22T11:27:30.514Z,9.93
2019-02-22T11:29:58.211Z,9.37
2019-02-22T11:32:25.671Z,9.93
2019-02-22T11:34:53.364Z,9.63
2019-02-22T11:37:20.895Z,8.57
2019-02-22T11:39:48.545Z,11.30
2019-02-22T11:42:16.067Z,8.87
2019-02-22T11:44:43.577Z,9.83
2019-02-22T11:47:11.085Z,11.27
2019-02-22T11:49:38.768Z,10.00
2019-02-22T11:52:06.437Z,9.87
2019-02-22T11:54:33.957Z,11.80
2019-02-22T11:57:04.175Z,10.30
2019-02-22T11:59:31.859Z,10.20
2019-02-22T12:01:59.436Z,10.80
2019-02-22T12:04:27.000Z,11.30
2019-02-22T12:06:54.580Z,10.13
2019-02-22T12:09:22.111Z,11.43
2019-02-22T12:11:49.731Z,9.90
2019-02-22T12:14:17.467Z,10.50
2019-02-22T12:16:45.195Z,9.07
2019-02-22T12:19:12.805Z,9.37
2019-02-22T12:21:40.280Z,8.13
2019-02-22T12:24:07.738Z,10.33
2019-02-22T12:26:35.438Z,9.10
2019-02-22T12:29:05.427Z,9.10
2019-02-22T12:31:33.343Z,9.70
2019-02-22T12:34:01.697Z,8.00
2019-02-22T12:36:29.406Z,7.53
2019-02-22T12:38:56.876Z,7.53
2019-02-22T12:41:24.343Z,6.60
2019-02-22T12:43:51.933Z,7.13
2019-02-22T12:46:19.806Z,8.27
2019-02-22T12:48:47.420Z,7.53
2019-02-22T12:51:15.065Z,6.27
2019-02-22T12:53:43.837Z,9.37
2019-02-22T12:56:11.388Z,7.47
2019-02-22T12:58:38.960Z,7.83
2019-02-22T13:01:06.561Z,15.80
2019-02-22T13:03:34.154Z,8.93
2019-02-22T13:06:01.660Z,9.10
2019-02-22T13:08:29.409Z,8.63
2019-02-22T13:10:57.005Z,9.50
2019-02-22T13:13:24.564Z,8.93
2019-02-22T13:15:52.154Z,10.75
2019-02-22T13:18:19.905Z,8.90
2019-02-22T13:20:47.437Z,9.93
2019-02-22T13:23:15.144Z,8.33
2019-02-22T13:25:42.661Z,9.10
2019-02-22T13:28:10.180Z,10.20
2019-02-22T13:30:37.709Z,9.73
2019-02-22T13:33:05.226Z,9.27
2019-02-22T13:35:32.931Z,8.80
2019-02-22T13:38:00.490Z,8.90
2019-02-22T13:40:28.086Z,9.40
2019-02-22T13:42:55.625Z,9.37
2019-02-22T13:45:26.953Z,13.97
2019-02-22T13:47:52.468Z,14.97
2019-02-22T13:50:20.049Z,11.10
2019-02-22T13:52:47.455Z,12.03
2019-02-22T13:55:14.762Z,12.70
2019-02-22T13:57:42.872Z,11.50
2019-02-22T14:00:15.077Z,10.77
2019-02-22T14:02:42.977Z,12.50
2019-02-22T14:05:10.740Z,13.17
2019-02-22T14:07:38.437Z,11.25
2019-02-22T14:10:06.100Z,10.50
2019-02-22T14:12:33.752Z,14.18
2019-02-22T14:15:01.258Z,11.20
2019-02-22T14:17:30.727Z,10.23
2019-02-22T14:19:58.064Z,11.17
2019-02-22T14:22:25.484Z,10.70
2019-02-22T14:24:53.021Z,10.37
2019-02-22T14:27:20.762Z,9.00
2019-02-22T14:29:48.291Z,8.70
2019-02-22T14:32:16.880Z,9.57
2019-02-22T14:34:44.577Z,8.00
2019-02-22T14:37:12.226Z,8.63
2019-02-22T14:39:39.806Z,8.20
2019-02-22T14:42:07.247Z,8.10
2019-02-22T14:44:35.013Z,7.63
2019-02-22T14:47:02.729Z,7.73
2019-02-22T14:49:30.846Z,7.43
2019-02-22T14:51:58.675Z,10.63
2019-02-22T14:54:26.205Z,8.83
2019-02-22T14:56:53.729Z,6.83
2019-02-22T14:59:21.253Z,8.73
2019-02-22T15:01:48.848Z,9.20
2019-02-22T15:04:16.592Z,8.63
2019-02-22T15:06:46.244Z,12.37
2019-02-22T15:09:14.062Z,7.73
2019-02-22T15:11:41.711Z,8.53
2019-02-22T15:14:09.479Z,8.67
2019-02-22T15:17:11.600Z,7.70
2019-02-22T15:19:39.031Z,6.97
2019-02-22T15:22:06.559Z,8.67
2019-02-22T15:24:34.330Z,7.83
2019-02-22T15:27:03.421Z,8.33
2019-02-22T15:29:31.006Z,7.33
2019-02-22T15:31:58.455Z,7.57
2019-02-22T15:34:25.903Z,7.20
2019-02-22T15:36:53.371Z,7.17
2019-02-22T15:39:20.931Z,7.50
2019-02-22T15:41:48.615Z,7.60
2019-02-22T15:44:16.344Z,7.50
2019-02-22T15:46:44.983Z,6.90
2019-02-22T15:49:12.640Z,7.60
2019-02-22T15:51:40.395Z,10.10
2019-02-22T15:54:08.063Z,8.55
2019-02-22T15:56:35.603Z,7.50
2019-02-22T15:59:03.810Z,8.17
2019-02-22T16:01:31.540Z,7.83
2019-02-22T16:04:21.352Z,8.00
2019-02-22T16:06:49.018Z,8.10
2019-02-22T16:09:16.718Z,9.80
2019-02-22T16:11:44.689Z,10.37
2019-02-22T16:14:12.220Z,8.53
2019-02-22T16:16:39.829Z,8.97
2019-02-22T16:19:07.279Z,8.87
2019-02-22T16:21:34.577Z,8.07
2019-02-22T16:24:01.990Z,7.70
2019-02-22T16:26:30.796Z,7.70
2019-02-22T16:28:58.346Z,7.70
2019-02-22T16:31:25.908Z,8.60
2019-02-22T16:33:53.462Z,8.07
2019-02-22T16:36:21.115Z,9.03
2019-02-22T16:38:48.605Z,7.47
2019-02-22T16:41:16.109Z,8.10
2019-02-22T16:43:43.701Z,9.43
2019-02-22T16:46:11.192Z,9.90
2019-02-22T16:48:38.699Z,9.23
2019-02-22T16:51:06.401Z,8.63
2019-02-22T16:53:33.938Z,8.03
2019-02-22T16:56:01.513Z,12.93
2019-02-22T16:58:30.011Z,8.07
2019-02-22T17:00:57.511Z,7.57
2019-02-22T17:03:25.542Z,7.40
2019-02-22T17:05:53.169Z,6.87
2019-02-22T17:08:20.795Z,8.20
2019-02-22T17:10:52.043Z,7.57
2019-02-22T17:13:25.575Z,7.33
2019-02-22T17:15:53.110Z,8.63
2019-02-22T17:18:20.562Z,11.00
2019-02-22T17:20:48.068Z,7.93
2019-02-22T17:23:15.608Z,7.73
2019-02-22T17:25:42.969Z,7.20
2019-02-22T17:28:10.388Z,7.23
2019-02-22T17:30:38.078Z,6.63
2019-02-22T17:33:24.967Z,7.23
2019-02-22T17:35:52.435Z,8.53
2019-02-22T17:38:20.139Z,8.60
2019-02-22T17:40:48.086Z,11.57
2019-02-22T17:43:15.736Z,12.63
2019-02-22T17:45:43.825Z,12.07
2019-02-22T17:48:11.441Z,10.73
2019-02-22T17:50:39.067Z,12.50
2019-02-22T17:53:07.163Z,10.57
2019-02-22T17:55:34.719Z,10.97
2019-02-22T17:58:02.270Z,18.53
2019-02-22T18:00:29.670Z,25.73
2019-02-22T18:02:57.206Z,14.37
2019-02-22T18:05:24.835Z,13.23
2019-02-22T18:07:52.420Z,12.53
2019-02-22T18:10:19.916Z,10.90
2019-02-22T18:12:47.600Z,9.80
2019-02-22T18:15:15.082Z,9.80
2019-02-22T18:17:42.890Z,7.80
2019-02-22T18:20:10.330Z,8.80
2019-02-22T18:22:37.831Z,8.93
2019-02-22T18:25:07.115Z,10.27
2019-02-22T18:27:34.601Z,8.90
2019-02-22T18:30:02.062Z,9.50
2019-02-22T18:32:29.710Z,8.70
2019-02-22T18:34:57.327Z,8.10
2019-02-22T18:37:24.875Z,10.78
2019-02-22T18:39:52.519Z,9.00
2019-02-22T18:42:20.107Z,8.57
2019-02-22T18:44:48.073Z,7.87
2019-02-22T18:47:19.317Z,7.70
2019-02-22T18:49:45.233Z,8.23
2019-02-22T18:52:12.879Z,8.13
2019-02-22T18:54:41.877Z,9.00
2019-02-22T18:57:09.462Z,9.60
2019-02-22T18:59:37.163Z,8.30
2019-02-22T19:02:04.631Z,9.30
2019-02-22T19:04:32.099Z,8.57
2019-02-22T19:06:59.803Z,15.63
2019-02-22T19:09:27.444Z,8.87
2019-02-22T19:11:54.971Z,7.90
2019-02-22T19:14:22.631Z,8.60
2019-02-22T19:16:50.226Z,8.33
2019-02-22T19:19:19.053Z,8.73
2019-02-22T19:21:46.628Z,8.57
2019-02-22T19:24:14.112Z,8.40
2019-02-22T19:26:41.668Z,8.20
2019-02-22T19:29:09.282Z,8.20
2019-02-22T19:31:37.439Z,8.63
2019-02-22T19:34:05.323Z,8.40
2019-02-22T19:36:33.321Z,9.23
2019-02-22T19:39:01.287Z,9.70
2019-02-22T19:41:31.147Z,11.30
2019-02-22T19:43:58.693Z,9.17
2019-02-22T19:46:26.674Z,10.20
2019-02-22T19:48:54.986Z,8.83
2019-02-22T19:51:24.006Z,9.23
2019-02-22T19:53:52.169Z,9.57
2019-02-22T19:56:20.051Z,10.07
2019-02-22T19:58:47.720Z,10.40
2019-02-22T20:01:15.678Z,10.30
2019-02-22T20:03:44.100Z,10.17
2019-02-22T20:06:11.908Z,8.97
2019-02-22T20:08:40.537Z,9.17
2019-02-22T20:11:08.787Z,10.20
2019-02-22T20:13:37.074Z,9.33
2019-02-22T20:16:04.976Z,9.80
2019-02-22T20:18:33.543Z,10.03
2019-02-22T20:21:01.427Z,9.60
2019-02-22T20:23:29.790Z,9.40
2019-02-22T20:25:57.557Z,12.30
2019-02-22T20:28:26.055Z,9.63
2019-02-22T20:30:55.519Z,11.30
2019-02-22T20:33:23.181Z,10.30
2019-02-22T20:35:51.391Z,10.30
2019-02-22T20:38:19.964Z,10.73
2019-02-22T20:40:47.937Z,10.23
2019-02-22T20:43:15.467Z,11.13
2019-02-22T20:45:43.307Z,11.43
2019-02-22T20:48:13.138Z,11.20
2019-02-22T20:50:41.167Z,10.20
2019-02-22T20:53:08.800Z,13.00
2019-02-22T20:55:36.790Z,12.18
2019-02-22T20:58:05.023Z,11.30
2019-02-22T21:00:32.687Z,11.47
2019-02-22T21:03:00.268Z,10.10
2019-02-22T21:05:27.862Z,12.53
2019-02-22T21:07:55.834Z,12.30
2019-02-22T21:10:23.479Z,10.73
2019-02-22T21:12:51.406Z,12.43
2019-02-22T21:15:21.879Z,12.07
2019-02-22T21:17:49.419Z,11.17
2019-02-22T21:20:16.881Z,11.57
2019-02-22T21:22:44.807Z,11.90
2019-02-22T21:25:12.698Z,12.87
2019-02-22T21:27:40.217Z,13.50
2019-02-22T21:30:09.046Z,12.33
2019-02-22T21:32:36.594Z,15.80
2019-02-22T21:35:04.244Z,13.57
2019-02-22T21:37:31.731Z,14.57
2019-02-22T21:39:59.208Z,13.17
2019-02-22T21:42:26.835Z,12.70
2019-02-22T21:44:54.481Z,12.60
2019-02-22T21:47:22.079Z,13.67
2019-02-22T21:49:49.712Z,12.80
2019-02-22T21:52:17.268Z,14.53
2019-02-22T21:54:44.731Z,13.80
2019-02-22T21:57:12.223Z,14.00
2019-02-22T21:59:39.627Z,12.70
2019-02-22T22:02:07.264Z,17.60
2019-02-22T22:04:34.908Z,15.43
2019-02-22T22:07:02.566Z,13.77
2019-02-22T22:09:31.252Z,16.07
2019-02-22T22:11:58.864Z,14.27
2019-02-22T22:14:27.668Z,15.47
2019-02-22T22:16:55.243Z,12.70
2019-02-22T22:19:23.134Z,14.43
2019-02-22T22:21:51.541Z,16.20
2019-02-22T22:24:19.955Z,14.63
2019-02-22T22:26:47.774Z,14.63
2019-02-22T22:29:15.431Z,14.13
2019-02-22T22:31:43.047Z,15.18
2019-02-22T22:34:10.939Z,13.77
2019-02-22T22:36:40.061Z,14.73
2019-02-22T22:39:07.808Z,15.27
2019-02-22T22:41:35.623Z,15.93
2019-02-22T22:44:03.153Z,12.90
2019-02-22T22:46:36.954Z,17.93
2019-02-22T22:49:00.404Z,16.60
2019-02-22T22:51:28.957Z,16.93
2019-02-22T22:53:57.892Z,18.07
2019-02-22T22:56:26.963Z,18.07
2019-02-22T22:58:54.722Z,17.47
2019-02-22T23:01:26.971Z,20.90
2019-02-22T23:03:54.985Z,17.93
2019-02-22T23:06:22.804Z,17.40
2019-02-22T23:08:50.474Z,18.63
2019-02-22T23:11:19.202Z,17.10
2019-02-22T23:13:47.539Z,19.37
2019-02-22T23:16:15.301Z,21.70
2019-02-22T23:18:42.831Z,21.20
2019-02-22T23:21:10.585Z,21.30
2019-02-22T23:23:38.181Z,19.17
2019-02-22T23:26:05.881Z,20.87
2019-02-22T23:28:33.518Z,19.40
2019-02-22T23:31:02.938Z,20.80
2019-02-22T23:33:30.462Z,21.40
2019-02-22T23:36:00.166Z,21.67
2019-02-22T23:38:27.471Z,21.43
2019-02-22T23:40:55.299Z,19.40
2019-02-22T23:43:22.791Z,20.00
2019-02-22T23:45:50.195Z,22.83
2019-02-22T23:48:17.686Z,20.80
2019-02-22T23:50:45.299Z,22.70
2019-02-22T23:53:12.787Z,24.23
2019-02-22T23:55:40.402Z,22.00
2019-02-22T23:58:07.977Z,19.73
